Time;durP1;ratioP1;P1;durP2;ratioP2;P2;SDS_P1;SDS_P2;PMS_P1;PMS_P2;Temp;Humidity;BMP_temperature;BMP_pressure;BME280_temperature;BME280_humidity;BME280_pressure;Samples;Min_cycle;Max_cycle;Signal;HPM_P1;HPM_P2
2021/11/11 00:01:03;;;;;;;71.50;27.45;;;;;;;7.52;100.00;102217.16;4995259;28;20048;-76
2021/11/11 00:03:28;;;;;;;63.90;26.38;;;;;;;7.54;100.00;102210.06;5022082;28;20040;-73
2021/11/11 00:05:55;;;;;;;63.55;26.95;;;;;;;7.53;100.00;102207.53;5021491;28;20446;-75
2021/11/11 00:08:22;;;;;;;67.97;26.83;;;;;;;7.53;100.00;102215.38;5023134;28;20506;-74
2021/11/11 00:10:48;;;;;;;70.05;26.50;;;;;;;7.54;100.00;102211.84;5008404;28;20038;-76
2021/11/11 00:13:14;;;;;;;63.20;28.00;;;;;;;7.53;100.00;102215.38;5023611;28;20498;-76
2021/11/11 00:15:40;;;;;;;70.53;28.25;;;;;;;7.54;100.00;102211.84;4951644;28;1064681;-75
2021/11/11 00:18:06;;;;;;;74.78;29.70;;;;;;;7.53;100.00;102207.53;4994988;28;20029;-75
2021/11/11 00:20:32;;;;;;;71.78;30.95;;;;;;;7.55;100.00;102210.91;5022246;28;20038;-76
2021/11/11 00:22:59;;;;;;;83.25;33.25;;;;;;;7.61;100.00;102210.56;5023349;28;20037;-77
2021/11/11 00:25:26;;;;;;;75.68;33.08;;;;;;;7.58;100.00;102205.50;4997334;28;20049;-75
2021/11/11 00:27:52;;;;;;;89.35;34.08;;;;;;;7.59;100.00;102207.19;5007614;28;20025;-75
2021/11/11 00:30:19;;;;;;;82.57;33.60;;;;;;;7.58;100.00;102197.69;5026257;28;20834;-75
2021/11/11 00:32:49;;;;;;;91.43;34.50;;;;;;;7.54;100.00;102197.03;5006120;28;20487;-77
2021/11/11 00:35:24;;;;;;;92.68;34.25;;;;;;;7.52;100.00;102188.44;5008175;28;20041;-76
2021/11/11 00:37:51;;;;;;;101.15;36.33;;;;;;;7.50;100.00;102186.84;5008974;28;20125;-76
2021/11/11 00:40:18;;;;;;;107.18;36.92;;;;;;;7.53;100.00;102194.50;4993837;28;20107;-74
2021/11/11 00:42:45;;;;;;;96.57;37.65;;;;;;;7.53;100.00;102186.66;5011480;28;20040;-75
2021/11/11 00:45:12;;;;;;;107.70;38.50;;;;;;;7.49;100.00;102175.56;5007633;28;20076;-74
2021/11/11 00:47:38;;;;;;;116.35;39.53;;;;;;;7.48;100.00;102189.56;5005842;28;20488;-75
2021/11/11 00:50:06;;;;;;;110.20;38.72;;;;;;;7.47;100.00;102187.03;5025419;28;20120;-77
2021/11/11 00:52:33;;;;;;;115.50;40.75;;;;;;;7.45;100.00;102189.72;5003893;28;20056;-76
2021/11/11 00:55:00;;;;;;;125.07;42.30;;;;;;;7.45;100.00;102191.50;5010553;28;20495;-77
2021/11/11 00:57:35;;;;;;;108.43;39.50;;;;;;;7.44;100.00;102188.06;4987830;28;20121;-75
2021/11/11 01:00:00;;;;;;;124.70;42.25;;;;;;;7.48;100.00;102186.94;4980994;28;20172;-76
2021/11/11 01:02:26;;;;;;;125.63;42.83;;;;;;;7.49;100.00;102193.84;5004291;28;20034;-76
2021/11/11 01:04:52;;;;;;;124.00;42.75;;;;;;;7.45;100.00;102189.72;5016346;28;20040;-77
2021/11/11 01:07:19;;;;;;;131.73;45.15;;;;;;;7.46;100.00;102188.81;4992036;28;20041;-76
2021/11/11 01:09:45;;;;;;;125.50;41.53;;;;;;;7.45;100.00;102191.50;5018688;28;20144;-76
2021/11/11 01:12:10;;;;;;;110.75;39.75;;;;;;;7.40;100.00;102194.38;4992115;28;20127;-75
2021/11/11 01:14:36;;;;;;;128.32;41.22;;;;;;;7.39;100.00;102203.97;5022440;28;20038;-75
2021/11/11 01:17:03;;;;;;;103.78;38.45;;;;;;;7.38;100.00;102198.84;4989477;28;20029;-74
2021/11/11 01:19:29;;;;;;;114.82;41.50;;;;;;;7.38;100.00;102193.63;4990585;28;20034;-75
2021/11/11 01:21:55;;;;;;;109.57;39.13;;;;;;;7.35;100.00;102197.25;5006480;28;20217;-76
2021/11/11 01:24:21;;;;;;;112.47;40.47;;;;;;;7.36;100.00;102204.16;5009237;28;20374;-76
2021/11/11 01:26:47;;;;;;;106.97;39.08;;;;;;;7.35;100.00;102199.88;4990490;28;20033;-75
2021/11/11 01:29:13;;;;;;;129.38;43.28;;;;;;;7.41;100.00;102209.13;5024953;28;20116;-76
2021/11/11 01:31:40;;;;;;;133.65;44.88;;;;;;;7.44;100.00;102213.31;5011576;28;20037;-75
2021/11/11 01:34:06;;;;;;;148.85;46.75;;;;;;;7.43;100.00;102214.25;5004557;28;20037;-75
2021/11/11 01:36:32;;;;;;;126.07;42.13;;;;;;;7.41;100.00;102214.34;4996277;28;20041;-75
2021/11/11 01:39:01;;;;;;;131.93;46.45;;;;;;;7.43;100.00;102216.88;5008176;28;20037;-76
2021/11/11 01:41:47;;;;;;;123.18;40.38;;;;;;;7.41;100.00;102204.72;5006732;28;20418;-75
2021/11/11 01:44:15;;;;;;;127.00;43.05;;;;;;;7.44;100.00;102208.09;4995109;28;20037;-76
2021/11/11 01:46:41;;;;;;;126.60;44.30;;;;;;;7.43;100.00;102201.19;4991997;28;20038;-75
2021/11/11 01:49:07;;;;;;;125.07;43.30;;;;;;;7.45;100.00;102205.41;5006900;28;20033;-74
2021/11/11 01:51:32;;;;;;;114.70;41.65;;;;;;;7.42;100.00;102197.72;4996538;28;20627;-76
2021/11/11 01:54:03;;;;;;;131.18;42.10;;;;;;;7.44;100.00;102202.88;4976139;28;20041;-74
2021/11/11 01:56:29;;;;;;;126.75;43.20;;;;;;;7.43;100.00;102191.59;4975125;28;20030;-74
2021/11/11 01:59:05;;;;;;;107.57;42.28;;;;;;;7.45;100.00;102192.34;4995807;28;20033;-75
2021/11/11 02:01:30;;;;;;;117.03;42.17;;;;;;;7.41;100.00;102188.22;5020255;28;20033;-74
2021/11/11 02:03:57;;;;;;;128.23;41.15;;;;;;;7.40;100.00;102194.38;5001816;28;20128;-73
2021/11/11 02:06:32;;;;;;;111.25;39.63;;;;;;;7.38;100.00;102191.88;5002359;28;20087;-74
2021/11/11 02:09:04;;;;;;;120.43;41.38;;;;;;;7.41;100.00;102189.06;4997565;28;20033;-75
2021/11/11 02:11:51;;;;;;;112.70;40.28;;;;;;;7.40;100.00;102187.41;4994203;28;20817;-75
2021/11/11 02:14:16;;;;;;;110.00;40.58;;;;;;;7.43;100.00;102193.38;5010049;28;20041;-74
2021/11/11 02:16:43;;;;;;;115.03;40.28;;;;;;;7.41;100.00;102189.06;5010328;28;20276;-75
2021/11/11 02:19:15;;;;;;;114.78;40.88;;;;;;;7.41;100.00;102183.84;5009911;28;20504;-75
2021/11/11 02:21:51;;;;;;;108.13;39.45;;;;;;;7.45;100.00;102194.13;4993984;28;20041;-74
2021/11/11 02:24:17;;;;;;;132.23;41.75;;;;;;;7.44;100.00;102185.44;4987793;28;20441;-75
2021/11/11 02:27:05;;;;;;;116.00;40.83;;;;;;;7.44;100.00;102189.81;5018972;28;20491;-75
2021/11/11 02:29:31;;;;;;;114.03;41.53;;;;;;;7.44;100.00;102179.38;4990868;28;20048;-75
2021/11/11 02:31:58;;;;;;;114.90;40.28;;;;;;;7.45;100.00;102191.50;4995428;28;20029;-75
2021/11/11 02:34:29;;;;;;;;;;;;;;;7.41;100.00;102186.44;5004550;28;20462;-73
2021/11/11 02:37:04;;;;;;;121.43;41.65;;;;;;;7.40;100.00;102192.63;5020085;28;19924;-74
2021/11/11 02:39:59;;;;;;;108.95;41.47;;;;;;;7.40;100.00;102189.16;5006415;28;20090;-76
2021/11/11 02:42:34;;;;;;;102.03;40.75;;;;;;;7.37;100.00;102177.13;4999344;28;20042;-73
2021/11/11 02:45:03;;;;;;;112.13;40.17;;;;;;;7.35;100.00;102173.78;4995616;28;20037;-74
2021/11/11 02:47:35;;;;;;;104.70;39.33;;;;;;;7.34;100.00;102179.06;5009383;28;20156;-75
2021/11/11 02:50:03;;;;;;;101.63;38.47;;;;;;;7.36;100.00;102175.44;5012680;28;20034;-74
2021/11/11 02:52:28;;;;;;;108.30;38.70;;;;;;;7.32;100.00;102171.34;5003082;28;20045;-73
2021/11/11 02:54:54;;;;;;;98.22;38.35;;;;;;;7.33;100.00;102170.41;5001420;28;20043;-76
2021/11/11 02:57:31;;;;;;;115.53;38.58;;;;;;;7.36;100.00;102177.22;5005467;28;20392;-74
2021/11/11 03:00:05;;;;;;;96.68;36.97;;;;;;;7.32;100.00;102181.78;5009675;28;20037;-75
2021/11/11 03:02:33;;;;;;;98.82;37.67;;;;;;;7.33;100.00;102183.47;5002757;28;20079;-74
2021/11/11 03:05:02;;;;;;;113.85;38.45;;;;;;;7.34;100.00;102179.91;5006466;28;20106;-76
2021/11/11 03:07:30;;;;;;;109.50;38.88;;;;;;;7.33;100.00;102180.03;5001097;28;20586;-75
2021/11/11 03:09:56;;;;;;;97.25;36.90;;;;;;;7.32;100.00;102179.16;4981819;28;20033;-74
2021/11/11 03:12:22;;;;;;;94.38;37.85;;;;;;;7.34;100.00;102177.28;4998565;28;20040;-76
2021/11/11 03:14:50;;;;;;;98.55;36.67;;;;;;;7.34;100.00;102171.25;5012539;28;20049;-76
2021/11/11 03:17:17;;;;;;;109.95;39.30;;;;;;;7.35;100.00;102172.94;4995005;28;20115;-74
2021/11/11 03:19:44;;;;;;;114.57;38.70;;;;;;;7.33;100.00;102164.38;5010868;28;20455;-75
2021/11/11 03:22:15;;;;;;;99.60;37.95;;;;;;;7.38;100.00;102172.75;4990739;28;20052;-73
2021/11/11 03:24:41;;;;;;;100.85;36.55;;;;;;;7.35;100.00;102171.16;4989209;28;20040;-76
2021/11/11 03:27:09;;;;;;;111.72;37.20;;;;;;;7.37;100.00;102168.47;4995833;28;20034;-76
2021/11/11 03:29:36;;;;;;;108.15;36.78;;;;;;;7.38;100.00;102162.31;4996788;28;20034;-73
2021/11/11 03:32:04;;;;;;;107.63;37.42;;;;;;;7.38;100.00;102163.16;5007151;28;20079;-73
2021/11/11 03:34:30;;;;;;;108.97;38.60;;;;;;;7.36;100.00;102162.38;5019614;28;20332;-76
2021/11/11 03:36:57;;;;;;;109.57;36.88;;;;;;;7.35;100.00;102158.13;5016866;28;20037;-74
2021/11/11 03:39:25;;;;;;;96.57;34.75;;;;;;;7.36;100.00;102156.34;5024792;28;20048;-74
2021/11/11 03:41:52;;;;;;;98.22;35.20;;;;;;;7.40;100.00;102163.03;5011447;28;20033;-74
2021/11/11 03:44:19;;;;;;;101.15;36.03;;;;;;;7.37;100.00;102158.84;5027641;28;20119;-75
2021/11/11 03:46:49;;;;;;;97.88;35.17;;;;;;;7.34;100.00;102156.41;4994584;28;20081;-76
2021/11/11 03:49:15;;;;;;;100.43;35.13;;;;;;;7.34;100.00;102156.41;5010257;28;20052;-75
2021/11/11 03:51:42;;;;;;;100.50;35.85;;;;;;;7.34;100.00;102163.41;5016108;28;20033;-74
2021/11/11 03:54:08;;;;;;;85.55;33.33;;;;;;;7.34;100.00;102156.41;5013325;28;20034;-74
2021/11/11 03:56:36;;;;;;;96.40;34.00;;;;;;;7.35;100.00;102154.66;5011999;28;20033;-74
2021/11/11 03:59:03;;;;;;;82.32;31.35;;;;;;;7.35;100.00;102157.28;5012268;28;20032;-75
2021/11/11 04:01:32;;;;;;;77.35;32.72;;;;;;;7.32;100.00;102158.28;5006741;28;20036;-74
2021/11/11 04:03:58;;;;;;;103.95;34.30;;;;;;;7.36;100.00;102161.56;4996404;28;20311;-75
2021/11/11 04:06:24;;;;;;;88.57;33.72;;;;;;;7.36;100.00;102158.94;5005419;28;20590;-75
2021/11/11 04:08:51;;;;;;;96.47;33.88;;;;;;;7.34;100.00;102159.03;5000829;28;20044;-75
2021/11/11 04:11:17;;;;;;;90.20;33.30;;;;;;;7.36;100.00;102164.16;5010590;28;20026;-74
2021/11/11 04:13:43;;;;;;;89.03;33.78;;;;;;;7.38;100.00;102163.16;5000826;28;20041;-75
2021/11/11 04:16:10;;;;;;;92.35;33.53;;;;;;;7.38;100.00;102164.91;5013530;28;20056;-73
2021/11/11 04:18:37;;;;;;;86.07;33.03;;;;;;;7.39;100.00;102164.81;4983093;28;20037;-74
2021/11/11 04:21:03;;;;;;;85.60;33.40;;;;;;;7.37;100.00;102156.25;5013918;28;20037;-74
2021/11/11 04:23:30;;;;;;;88.93;35.35;;;;;;;7.39;100.00;102161.38;5019235;28;20654;-73
2021/11/11 04:29:45;;;;;;;91.25;35.83;;;;;;;7.39;100.00;102154.38;4991421;28;20046;-75
2021/11/11 04:31:42;;;;;;;80.13;33.03;;;;;;;7.37;100.00;102153.63;4981845;28;20092;-74
2021/11/11 04:34:13;;;;;;;;;;;;;;;7.39;100.00;102153.56;5026955;28;20033;-75
2021/11/11 04:39:48;;;;;;;87.88;35.58;;;;;;;7.37;100.00;102153.63;5011000;28;20036;-74
2021/11/11 04:45:46;;;;;;;93.95;36.90;;;;;;;7.40;100.00;102160.44;4975567;28;20124;-73
2021/11/11 05:01:51;;;;;;;103.70;39.90;;;;;;;7.46;100.00;102162.69;5019641;28;20041;-76
2021/11/11 05:04:17;;;;;;;100.22;40.20;;;;;;;7.44;100.00;102161.97;5025796;28;20136;-76
2021/11/11 05:06:42;;;;;;;101.88;40.15;;;;;;;7.44;100.00;102156.75;4995780;28;20049;-75
2021/11/11 05:09:08;;;;;;;107.85;41.85;;;;;;;7.42;100.00;102153.34;5000965;28;20040;-73
2021/11/11 05:11:36;;;;;;;95.60;38.70;;;;;;;7.45;100.00;102157.56;5002712;28;20168;-75
2021/11/11 05:14:03;;;;;;;102.93;41.65;;;;;;;7.45;100.00;102160.19;4993680;28;20075;-75
2021/11/11 05:16:29;;;;;;;110.95;40.45;;;;;;;7.49;100.00;102156.44;5023974;28;20041;-75
2021/11/11 05:18:55;;;;;;;102.07;40.60;;;;;;;7.51;100.00;102152.81;5000671;28;20179;-74
2021/11/11 05:21:20;;;;;;;116.10;43.33;;;;;;;7.51;100.00;102157.19;5009482;28;20108;-75
2021/11/11 05:23:46;;;;;;;105.65;40.75;;;;;;;7.49;100.00;102165.09;5005236;28;20486;-75
2021/11/11 05:26:16;;;;;;;101.13;39.38;;;;;;;7.47;100.00;102163.53;5001458;28;20052;-76
2021/11/11 05:28:42;;;;;;;99.38;38.28;;;;;;;7.46;100.00;102160.09;5003909;28;20037;-75
2021/11/11 05:31:14;;;;;;;88.55;37.20;;;;;;;7.46;100.00;102162.69;5007931;28;20042;-73
2021/11/11 05:33:40;;;;;;;88.68;37.28;;;;;;;7.49;100.00;102159.88;4985595;28;20041;-76
2021/11/11 05:36:06;;;;;;;99.78;39.58;;;;;;;7.52;100.00;102151.88;5006754;28;20049;-75
2021/11/11 05:38:32;;;;;;;101.47;40.50;;;;;;;7.53;100.00;102153.53;5007915;28;20029;-76
2021/11/11 05:40:58;;;;;;;100.88;40.90;;;;;;;7.54;100.00;102151.78;4994657;28;20067;-75
2021/11/11 05:43:24;;;;;;;114.47;41.33;;;;;;;7.55;100.00;102154.31;4991665;28;20566;-73
2021/11/11 05:45:50;;;;;;;109.20;41.38;;;;;;;7.57;100.00;102157.69;5025840;28;20570;-76
2021/11/11 05:48:15;;;;;;;101.53;39.53;;;;;;;7.56;100.00;102152.53;4993062;28;20037;-75
2021/11/11 05:50:41;;;;;;;103.25;39.83;;;;;;;7.55;100.00;102151.72;5016626;28;20037;-74
2021/11/11 05:53:07;;;;;;;111.47;41.42;;;;;;;7.56;100.00;102158.59;4991894;28;20030;-75
2021/11/11 05:55:35;;;;;;;107.35;39.97;;;;;;;7.58;100.00;102153.28;4992187;28;20029;-75
2021/11/11 05:58:06;;;;;;;112.43;40.50;;;;;;;7.57;100.00;102152.47;5012726;28;20093;-76
2021/11/11 06:00:33;;;;;;;102.75;39.22;;;;;;;7.59;100.00;102160.16;5019216;28;20045;-76
2021/11/11 06:03:07;;;;;;;103.20;39.08;;;;;;;7.59;100.00;102155.81;4991506;28;20060;-73
2021/11/11 06:05:34;;;;;;;102.30;40.25;;;;;;;7.61;100.00;102160.94;5006802;28;20668;-75
2021/11/11 06:08:01;;;;;;;98.80;38.55;;;;;;;7.60;100.00;102157.47;5004276;28;20482;-75
2021/11/11 06:10:26;;;;;;;112.90;40.97;;;;;;;7.58;100.00;102159.34;5022620;28;20048;-75
2021/11/11 06:12:52;;;;;;;106.10;39.50;;;;;;;7.60;100.00;102164.47;5006523;28;20041;-74
2021/11/11 06:15:18;;;;;;;104.78;39.95;;;;;;;7.59;100.00;102163.66;4993540;28;20057;-75
2021/11/11 06:17:44;;;;;;;110.35;40.33;;;;;;;7.62;100.00;102167.00;5010344;28;20116;-74
2021/11/11 06:20:26;;;;;;;102.43;38.88;;;;;;;7.62;100.00;102167.00;5005745;28;20112;-76
2021/11/11 06:22:52;;;;;;;106.07;39.65;;;;;;;7.59;100.00;102168.88;5009083;28;20033;-74
2021/11/11 06:25:20;;;;;;;116.68;42.25;;;;;;;7.58;100.00;102169.78;5003225;28;20201;-75
2021/11/11 06:27:50;;;;;;;114.18;43.05;;;;;;;7.54;100.00;102173.53;4992157;28;20080;-75
2021/11/11 06:30:15;;;;;;;100.60;38.53;;;;;;;7.54;100.00;102172.69;5007130;28;20034;-74
2021/11/11 06:32:41;;;;;;;97.90;38.42;;;;;;;7.53;100.00;102176.22;5006844;28;20056;-76
2021/11/11 06:35:08;;;;;;;107.75;40.58;;;;;;;7.53;100.00;102173.59;4990347;28;20134;-75
2021/11/11 06:37:35;;;;;;;99.47;37.60;;;;;;;7.53;100.00;102171.00;5008017;28;21813;-76
2021/11/11 06:40:01;;;;;;;94.65;37.97;;;;;;;7.54;100.00;102180.53;5011745;28;20037;-77
2021/11/11 06:42:27;;;;;;;100.50;39.42;;;;;;;7.56;100.00;102184.72;4980550;28;20033;-76
2021/11/11 06:44:52;;;;;;;98.95;38.67;;;;;;;7.56;100.00;102184.72;4995621;28;20398;-76
2021/11/11 06:47:18;;;;;;;99.18;38.88;;;;;;;7.56;100.00;102179.50;5005389;28;20038;-75
2021/11/11 06:49:44;;;;;;;92.40;36.40;;;;;;;7.57;100.00;102180.31;5009468;28;20491;-75
2021/11/11 06:52:10;;;;;;;98.90;39.15;;;;;;;7.60;100.00;102180.97;5026974;28;20033;-76
2021/11/11 06:54:35;;;;;;;89.43;36.70;;;;;;;7.62;100.00;102182.66;4997109;28;20037;-78
2021/11/11 06:57:02;;;;;;;87.25;35.65;;;;;;;7.61;100.00;102171.41;4997640;28;20465;-74
2021/11/11 06:59:28;;;;;;;91.93;37.05;;;;;;;7.64;100.00;102181.63;5022593;28;20467;-73
2021/11/11 07:01:54;;;;;;;90.05;36.40;;;;;;;7.63;100.00;102172.13;4982945;28;20860;-75
2021/11/11 07:04:24;;;;;;;78.05;32.50;;;;;;;7.66;100.00;102181.56;5010459;28;20037;-74
2021/11/11 07:06:51;;;;;;;83.32;34.42;;;;;;;7.70;100.00;102191.72;4996327;28;20042;-74
2021/11/11 07:09:17;;;;;;;79.78;31.77;;;;;;;7.73;100.00;102191.53;5004439;28;20038;-75
2021/11/11 07:11:42;;;;;;;79.60;34.50;;;;;;;7.75;100.00;102187.06;5026137;28;20048;-74
2021/11/11 07:14:08;;;;;;;75.30;32.55;;;;;;;7.80;100.00;102195.47;5016188;28;20129;-76
2021/11/11 07:16:34;;;;;;;78.60;33.78;;;;;;;7.81;100.00;102191.06;5007977;28;20053;-76
2021/11/11 07:18:59;;;;;;;68.18;31.50;;;;;;;7.82;100.00;102195.38;4994347;28;20170;-76
2021/11/11 07:21:24;;;;;;;73.25;32.90;;;;;;;7.85;100.00;102196.94;4991234;28;20149;-74
2021/11/11 07:23:50;;;;;;;78.07;32.03;;;;;;;7.85;100.00;102194.34;5023104;28;20063;-76
2021/11/11 07:26:16;;;;;;;79.13;32.47;;;;;;;7.88;100.00;102196.78;4994519;28;20095;-74
2021/11/11 07:28:41;;;;;;;75.55;31.08;;;;;;;7.91;100.00;102200.03;5009130;28;20080;-75
2021/11/11 07:31:07;;;;;;;78.45;32.75;;;;;;;7.93;100.00;102195.56;4989204;28;20041;-76
2021/11/11 07:33:32;;;;;;;74.50;33.08;;;;;;;7.98;100.00;102203.94;5009069;28;20044;-75
2021/11/11 07:35:58;;;;;;;76.10;34.08;;;;;;;8.04;100.00;102196.66;4996530;28;20133;-74
2021/11/11 07:38:24;;;;;;;76.35;33.85;;;;;;;8.08;100.00;102196.41;4991143;28;20095;-74
2021/11/11 07:40:50;;;;;;;85.65;34.83;;;;;;;8.09;100.00;102197.22;5006950;28;20104;-74
2021/11/11 07:43:15;;;;;;;87.93;35.17;;;;;;;8.09;100.00;102194.63;4996499;28;20041;-75
2021/11/11 07:45:43;;;;;;;92.55;35.42;;;;;;;8.10;100.00;102197.13;4993513;28;20072;-75
2021/11/11 07:48:09;;;;;;;78.05;35.33;;;;;;;8.14;100.00;102201.25;5003895;28;20029;-76
2021/11/11 07:50:41;;;;;;;82.20;35.33;;;;;;;8.21;100.00;102204.28;5007979;28;20079;-73
2021/11/11 07:53:10;;;;;;;72.47;33.53;;;;;;;8.23;100.00;102205.06;5006376;28;20037;-74
2021/11/11 07:55:38;;;;;;;75.57;35.00;;;;;;;8.28;100.00;102210.00;5008188;28;20074;-73
2021/11/11 07:58:04;;;;;;;75.50;34.88;;;;;;;8.27;100.00;102209.16;4978319;28;20170;-74
2021/11/11 08:00:30;;;;;;;85.38;36.80;;;;;;;8.33;100.00;102216.63;5023383;28;20037;-74
2021/11/11 08:02:56;;;;;;;79.28;35.40;;;;;;;8.30;100.00;102218.56;4994197;28;20049;-74
2021/11/11 08:05:22;;;;;;;88.25;36.97;;;;;;;8.37;100.00;102220.72;4993769;28;20095;-75
2021/11/11 08:07:49;;;;;;;89.53;37.78;;;;;;;8.39;100.00;102220.63;5010438;28;20052;-77
2021/11/11 08:10:19;;;;;;;82.75;36.50;;;;;;;8.44;100.00;102213.38;5012262;28;20032;-75
2021/11/11 08:12:45;;;;;;;78.70;35.60;;;;;;;8.44;100.00;102213.38;5004191;28;20037;-76
2021/11/11 08:15:11;;;;;;;78.57;36.13;;;;;;;8.47;100.00;102213.16;5007513;28;20025;-73
2021/11/11 08:17:38;;;;;;;76.72;35.63;;;;;;;8.45;100.00;102212.41;5008796;28;20060;-75
2021/11/11 08:20:05;;;;;;;78.15;35.78;;;;;;;8.48;100.00;102214.00;5003973;28;20127;-74
2021/11/11 08:22:30;;;;;;;80.65;37.10;;;;;;;8.49;100.00;102213.91;4993939;28;20048;-75
2021/11/11 08:24:56;;;;;;;77.90;35.90;;;;;;;8.50;100.00;102215.59;4988825;28;20029;-75
2021/11/11 08:27:24;;;;;;;85.68;38.38;;;;;;;8.53;100.00;102206.69;5010627;28;21040;-76
2021/11/11 08:29:51;;;;;;;78.20;37.20;;;;;;;8.57;100.00;102209.03;5028263;28;20071;-76
2021/11/11 08:32:18;;;;;;;83.60;37.10;;;;;;;8.57;100.00;102206.41;4988965;28;20064;-76
2021/11/11 08:34:46;;;;;;;83.88;39.60;;;;;;;8.57;100.00;102205.59;4981971;28;20049;-75
2021/11/11 08:37:12;;;;;;;86.28;38.55;;;;;;;8.58;100.00;102204.63;5005970;28;20087;-76
2021/11/11 08:39:39;;;;;;;83.65;37.40;;;;;;;8.62;100.00;102202.66;5018165;28;20495;-76
2021/11/11 08:42:07;;;;;;;75.63;35.90;;;;;;;8.69;100.00;102207.41;5022572;28;20083;-75
2021/11/11 08:44:33;;;;;;;83.20;38.67;;;;;;;8.67;100.00;102217.13;5003005;28;20045;-76
2021/11/11 08:46:59;;;;;;;80.20;38.78;;;;;;;8.66;100.00;102194.50;5009268;28;20037;-74
2021/11/11 08:49:24;;;;;;;83.72;40.03;;;;;;;8.70;100.00;102197.78;5008794;28;20418;-74
2021/11/11 08:51:52;;;;;;;86.63;39.33;;;;;;;8.70;100.00;102200.38;5008730;28;20151;-76
2021/11/11 08:54:20;;;;;;;87.18;40.20;;;;;;;8.67;100.00;102208.44;4992650;28;20021;-76
2021/11/11 08:56:50;;;;;;;90.80;39.85;;;;;;;8.71;100.00;102209.94;4986562;28;20045;-75
2021/11/11 08:59:19;;;;;;;85.68;39.70;;;;;;;8.72;100.00;102201.13;5006981;28;20033;-75
2021/11/11 09:01:46;;;;;;;86.63;39.35;;;;;;;8.74;100.00;102199.28;5024304;28;20057;-77
2021/11/11 09:04:13;;;;;;;78.53;38.70;;;;;;;8.79;100.00;102202.41;5004956;28;20526;-74
2021/11/11 09:06:41;;;;;;;91.65;40.47;;;;;;;8.80;100.00;102200.63;4988763;28;20558;-76
2021/11/11 09:09:06;;;;;;;77.32;39.30;;;;;;;8.79;100.00;102205.03;5008987;28;20132;-76
2021/11/11 09:11:32;;;;;;;82.43;39.13;;;;;;;8.81;100.00;102208.38;5014768;28;20025;-76
2021/11/11 09:13:57;;;;;;;82.55;40.25;;;;;;;8.85;100.00;102204.63;4993652;28;20055;-74
2021/11/11 09:16:25;;;;;;;76.00;37.95;;;;;;;8.86;100.00;102200.25;5005191;28;20467;-75
2021/11/11 09:18:51;;;;;;;72.95;37.47;;;;;;;8.84;100.00;102208.19;5012971;28;20025;-74
2021/11/11 09:21:17;;;;;;;76.90;36.40;;;;;;;8.87;100.00;102201.91;5007389;28;20403;-76
2021/11/11 09:23:42;;;;;;;77.43;37.80;;;;;;;8.90;100.00;102210.41;5022651;28;20479;-76
2021/11/11 09:26:09;;;;;;;76.07;36.72;;;;;;;8.93;100.00;102199.75;5004194;28;20116;-75
2021/11/11 09:28:38;;;;;;;75.05;37.53;;;;;;;8.93;100.00;102204.16;5011148;28;20167;-74
2021/11/11 09:31:05;;;;;;;82.50;37.92;;;;;;;8.93;100.00;102197.13;4989434;28;20038;-76
2021/11/11 09:33:31;;;;;;;75.70;37.67;;;;;;;8.94;100.00;102201.41;4999070;28;20037;-75
2021/11/11 09:35:57;;;;;;;77.43;38.25;;;;;;;8.97;100.00;102208.25;4975277;28;20044;-74
2021/11/11 09:38:24;;;;;;;69.95;36.17;;;;;;;9.00;100.00;102204.56;5012398;28;20033;-77
2021/11/11 09:40:51;;;;;;;76.07;36.47;;;;;;;8.99;100.00;102203.75;5026168;28;20503;-75
2021/11/11 09:43:17;;;;;;;71.63;36.55;;;;;;;8.96;100.00;102198.69;5005713;28;20036;-75
2021/11/11 09:45:46;;;;;;;71.57;35.78;;;;;;;8.97;100.00;102200.41;5019477;28;20042;-73
2021/11/11 09:48:14;;;;;;;77.63;37.65;;;;;;;8.94;100.00;102203.19;5009042;28;20035;-75
2021/11/11 09:50:41;;;;;;;69.78;35.28;;;;;;;8.99;100.00;102200.31;5008778;28;20033;-73
2021/11/11 09:53:13;;;;;;;67.78;36.90;;;;;;;8.98;100.00;102190.75;5006099;28;20087;-74
2021/11/11 09:58:41;;;;;;;72.28;35.05;;;;;;;9.00;100.00;102191.50;4992685;28;20445;-77
2021/11/11 10:01:14;;;;;;;71.22;35.33;;;;;;;9.10;100.00;102196.03;5005332;28;20278;-74
2021/11/11 10:03:42;;;;;;;67.43;34.42;;;;;;;9.07;100.00;102196.22;5022251;28;20040;-75
2021/11/11 10:06:16;;;;;;;76.35;36.08;;;;;;;9.08;100.00;102202.28;4988491;28;20127;-74
2021/11/11 10:08:47;;;;;;;71.20;35.15;;;;;;;9.08;100.00;102191.81;5009573;28;20045;-76
2021/11/11 10:11:24;;;;;;;69.78;35.35;;;;;;;9.15;100.00;102200.94;4993054;28;20049;-76
2021/11/11 10:13:55;;;;;;;68.78;35.30;;;;;;;9.19;100.00;102196.34;5008687;28;20060;-75
2021/11/11 10:16:20;;;;;;;72.65;33.90;;;;;;;9.31;100.00;102191.13;5019582;28;20029;-75
2021/11/11 10:18:55;;;;;;;65.03;33.08;;;;;;;9.35;100.00;102199.63;5026591;28;20063;-75
2021/11/11 10:22:10;;;;;;;60.90;32.60;;;;;;;9.42;100.00;102202.66;5010206;28;20633;-75
2021/11/11 10:24:42;;;;;;;58.97;31.52;;;;;;;9.45;100.00;102210.31;5006093;28;20456;-76
2021/11/11 10:27:24;;;;;;;69.47;33.13;;;;;;;9.43;100.00;102205.19;5011398;28;20111;-74
2021/11/11 10:30:04;;;;;;;67.63;31.77;;;;;;;9.47;100.00;102206.66;5000219;28;20455;-75
2021/11/11 10:32:40;;;;;;;55.10;31.67;;;;;;;9.50;100.00;102200.38;4991514;28;20403;-75
2021/11/11 10:35:15;;;;;;;59.00;30.73;;;;;;;9.61;100.00;102203.13;5014931;28;20745;-75
2021/11/11 10:37:52;;;;;;;58.58;30.95;;;;;;;9.63;100.00;102209.09;5014170;28;20051;-75
2021/11/11 10:40:25;;;;;;;58.88;29.75;;;;;;;9.62;100.00;102198.69;5007799;28;20034;-75
2021/11/11 10:42:54;;;;;;;50.30;28.92;;;;;;;9.63;100.00;102203.84;5001466;28;20073;-76
2021/11/11 10:45:29;;;;;;;55.00;28.98;;;;;;;9.63;100.00;102200.41;5021250;28;20033;-75
2021/11/11 10:47:57;;;;;;;52.00;28.83;;;;;;;9.64;100.00;102192.41;5012031;28;20045;-75
2021/11/11 10:50:28;;;;;;;51.78;28.80;;;;;;;9.78;100.00;102193.28;5011278;28;20029;-76
2021/11/11 10:52:55;;;;;;;49.88;27.48;;;;;;;9.81;100.00;102182.56;4999245;28;20505;-75
2021/11/11 10:55:23;;;;;;;49.72;26.90;;;;;;;9.89;100.00;102183.72;4996482;28;20091;-75
2021/11/11 10:58:04;;;;;;;45.42;25.42;;;;;;;9.94;100.00;102184.25;5004382;28;20045;-76
2021/11/11 11:00:38;;;;;;;41.60;24.60;;;;;;;9.98;100.00;102173.53;4993441;28;20025;-74
2021/11/11 11:03:14;;;;;;;47.60;25.33;;;;;;;10.07;100.00;102168.47;5000038;28;20044;-76
2021/11/11 11:06:12;;;;;;;40.08;23.45;;;;;;;10.04;100.00;102178.31;5011499;28;20053;-75
2021/11/11 11:08:45;;;;;;;40.25;23.27;;;;;;;9.99;100.00;102175.22;4986608;28;20443;-75
2021/11/11 11:11:18;;;;;;;42.63;23.27;;;;;;;9.99;100.00;102176.03;5007426;28;20490;-75
2021/11/11 11:13:50;;;;;;;39.88;22.58;;;;;;;9.92;100.00;102180.03;5010404;28;20042;-74
2021/11/11 11:16:20;;;;;;;38.38;22.13;;;;;;;9.88;100.00;102187.25;5029151;28;20032;-76
2021/11/11 11:18:55;;;;;;;38.75;21.92;;;;;;;9.88;100.00;102187.25;4995942;28;20030;-75
2021/11/11 11:21:49;;;;;;;42.28;21.95;;;;;;;9.86;100.00;102183.09;4995789;28;20960;-75
2021/11/11 11:24:18;;;;;;;36.60;21.95;;;;;;;9.84;100.00;102183.19;5025210;28;20041;-75
2021/11/11 11:26:48;;;;;;;35.03;21.48;;;;;;;9.88;100.00;102175.94;4995059;28;20073;-76
2021/11/11 11:29:23;;;;;;;41.08;22.85;;;;;;;9.84;100.00;102177.94;5003375;28;20120;-76
2021/11/11 11:32:08;;;;;;;38.67;23.45;;;;;;;9.85;100.00;102169.16;5028245;28;20545;-76
2021/11/11 11:34:38;;;;;;;37.88;21.98;;;;;;;9.83;100.00;102172.81;5001850;28;20084;-76
2021/11/11 11:37:16;;;;;;;34.17;20.98;;;;;;;9.85;100.00;102166.53;5013171;28;20037;-76
2021/11/11 11:39:45;;;;;;;39.35;22.05;;;;;;;9.85;100.00;102171.78;5008091;28;20057;-74